Terminal Aerodrome Forecast
Issued by NWS Pittsburgh, PA

Current Version | Previous Version | Graphics & Text | Print | Product List | Glossary On
Versions: 1 2 3 4 5 6 7 8 9 10 11 12 13 14 15 16 17 18 19 20 21 22 23 24 25 26 27 28
000
FTUS41 KPBZ 080200 AAA
TAFPIT
TAF AMD
KPIT 080256Z 0803/0906 22007KT P6SM VCSH SCT060 BKN080 OVC250
     FM080900 20005KT 4SM BR BKN015
     FM081400 21010G22KT P6SM BKN040
     FM081600 21012G26KT P6SM -SHRA VCTS BKN040CB=

USA.gov is the U.S. government's official web portal to all federal, state and local government web resources and services.